Dades meteomassalio
Diari Summary for Marc 29, 2017 Units:  Metric    English   Both
« Previous Day
Next Day »
Diari Semanal Mensual Anual Personalitzat
  Maxima: Minima: Mijana:
Temperatura: 22.4 °C 3.9 °C 13.1 °C
Rosada: 9.2 °C 2.7 °C 6.4 °C
Humitat: 92 % 38 % 68 %
Velocitat del vent: 18.5 km/h 0.0 km/h 2.3 km/h
Racha vent: 18.5 km/h - -
Vent:- - ESE
Pressio: 1028.7 hPa 1023.9 hPa -
Pluja: 0.0 mm    
Historical Graphs
 
 
Tabular Data for Marc 29, 2017
Time Temperature Dew Point Pressure Wind Wind Speed Wind Gust Humidity Rainfall Rate (Hourly) solar Conditions
00:01 8.4 °C 5.8 °C 1028.3 hPa Calm     84 % 0.0 mm 0.0 W/m2 RA
00:06 8.3 °C 5.8 °C 1028.3 hPa Calm     84 % 0.0 mm 0.0 W/m2 CLR
00:11 8.2 °C 5.7 °C 1028.3 hPa Calm     84 % 0.0 mm 0.0 W/m2 CLR
00:16 8.1 °C 5.5 °C 1028.3 hPa Calm     84 % 0.0 mm 0.0 W/m2 CLR
00:21 8.1 °C 5.7 °C 1028.3 hPa Calm     85 % 0.0 mm 0.0 W/m2 CLR
00:26 8.0 °C 5.6 °C 1028.3 hPa Calm     85 % 0.0 mm 0.0 W/m2 CLR
00:31 8.0 °C 5.6 °C 1028.7 hPa Calm     85 % 0.0 mm 0.0 W/m2 CLR
00:36 8.0 °C 5.6 °C 1028.7 hPa Calm     85 % 0.0 mm 0.0 W/m2 CLR
00:41 8.0 °C 5.4 °C 1028.7 hPa Calm     84 % 0.0 mm 0.0 W/m2 CLR
00:46 8.0 °C 5.4 °C 1028.7 hPa Calm     84 % 0.0 mm 0.0 W/m2 CLR
00:51 7.9 °C 5.5 °C 1028.3 hPa Calm     85 % 0.0 mm 0.0 W/m2 CLR
00:56 7.8 °C 5.4 °C 1028.7 hPa Calm     85 % 0.0 mm 0.0 W/m2 CLR
01:01 7.8 °C 5.4 °C 1028.7 hPa Calm     85 % 0.0 mm 0.0 W/m2 CLR
01:06 7.7 °C 5.3 °C 1028.7 hPa Calm     85 % 0.0 mm 0.0 W/m2 CLR
01:11 7.4 °C 5.1 °C 1028.7 hPa Calm     85 % 0.0 mm 0.0 W/m2 CLR
01:16 7.3 °C 5.0 °C 1028.7 hPa Calm     85 % 0.0 mm 0.0 W/m2 CLR
01:21 7.2 °C 5.1 °C 1028.7 hPa Calm     86 % 0.0 mm 0.0 W/m2 CLR
01:26 7.2 °C 5.0 °C 1028.7 hPa Calm     86 % 0.0 mm 0.0 W/m2 CLR
01:31 6.9 °C 4.8 °C 1028.7 hPa Calm     86 % 0.0 mm 0.0 W/m2 CLR
01:36 6.9 °C 4.9 °C 1028.7 hPa Calm     87 % 0.0 mm 0.0 W/m2 CLR
01:41 6.9 °C 4.9 °C 1028.7 hPa Calm     87 % 0.0 mm 0.0 W/m2 CLR
01:46 6.9 °C 4.9 °C 1028.7 hPa Calm     87 % 0.0 mm 0.0 W/m2 CLR
01:51 6.9 °C 4.9 °C 1028.7 hPa Calm     87 % 0.0 mm 0.0 W/m2 CLR
01:56 6.9 °C 4.9 °C 1028.7 hPa Calm     87 % 0.0 mm 0.0 W/m2 CLR
02:01 6.8 °C 4.8 °C 1028.7 hPa Calm     87 % 0.0 mm 0.0 W/m2 CLR
02:06 6.7 °C 4.7 °C 1028.7 hPa Calm     87 % 0.0 mm 0.0 W/m2 CLR
02:11 6.7 °C 4.9 °C 1028.7 hPa Calm     88 % 0.0 mm 0.0 W/m2 CLR
02:16 6.8 °C 4.8 °C 1028.7 hPa Calm     87 % 0.0 mm 0.0 W/m2 CLR
02:21 6.6 °C 4.6 °C 1028.7 hPa Calm     87 % 0.0 mm 0.0 W/m2 CLR
02:26 6.6 °C 4.6 °C 1028.3 hPa Calm     87 % 0.0 mm 0.0 W/m2 CLR
02:31 6.5 °C 4.5 °C 1028.3 hPa Calm     87 % 0.0 mm 0.0 W/m2 CLR
02:36 6.5 °C 4.7 °C 1028.3 hPa Calm     88 % 0.0 mm 0.0 W/m2 CLR
02:41 6.6 °C 4.8 °C 1028.3 hPa Calm     88 % 0.0 mm 0.0 W/m2 CLR
02:46 6.6 °C 4.6 °C 1028.3 hPa Calm     87 % 0.0 mm 0.0 W/m2 CLR
02:51 6.5 °C 4.5 °C 1028.3 hPa Calm     87 % 0.0 mm 0.0 W/m2 CLR
02:56 6.4 °C 4.6 °C 1028.3 hPa Calm     88 % 0.0 mm 0.0 W/m2 CLR
03:01 6.3 °C 4.5 °C 1028.3 hPa Calm     88 % 0.0 mm 0.0 W/m2 CLR
03:06 6.3 °C 4.5 °C 1028.3 hPa Calm     88 % 0.0 mm 0.0 W/m2 CLR
03:11 6.3 °C 4.5 °C 1028.3 hPa Calm     88 % 0.0 mm 0.0 W/m2 CLR
03:16 6.3 °C 4.5 °C 1028.3 hPa Calm     88 % 0.0 mm 0.0 W/m2 CLR
03:21 6.3 °C 4.4 °C 1028.3 hPa Calm     88 % 0.0 mm 0.0 W/m2 CLR
03:26 6.2 °C 4.4 °C 1028.3 hPa Calm     88 % 0.0 mm 0.0 W/m2 CLR
03:31 6.1 °C 4.2 °C 1028.3 hPa Calm     88 % 0.0 mm 0.0 W/m2 CLR
03:32 6.1 °C 4.2 °C 1028.3 hPa Calm     88 % 0.0 mm 0.0 W/m2 CLR
03:37 5.9 °C 4.1 °C 1028.3 hPa Calm     88 % 0.0 mm 0.0 W/m2 CLR
03:42 5.9 °C 4.1 °C 1028.3 hPa Calm     88 % 0.0 mm 0.0 W/m2 CLR
03:47 5.8 °C 4.2 °C 1028.3 hPa Calm     89 % 0.0 mm 0.0 W/m2 CLR
03:52 5.8 °C 4.1 °C 1028.3 hPa Calm     89 % 0.0 mm 0.0 W/m2 CLR
03:57 5.7 °C 4.1 °C 1028.3 hPa Calm     89 % 0.0 mm 0.0 W/m2 CLR
04:02 5.7 °C 4.1 °C 1028.3 hPa Calm     89 % 0.0 mm 0.0 W/m2 CLR
04:07 5.7 °C 4.1 °C 1028.0 hPa Calm     89 % 0.0 mm 0.0 W/m2 CLR
04:12 5.7 °C 4.0 °C 1028.0 hPa Calm     89 % 0.0 mm 0.0 W/m2 CLR
04:17 5.6 °C 3.9 °C 1028.0 hPa Calm     89 % 0.0 mm 0.0 W/m2 CLR
04:22 5.5 °C 3.8 °C 1028.0 hPa Calm     89 % 0.0 mm 0.0 W/m2 CLR
04:27 5.4 °C 3.7 °C 1028.0 hPa Calm     89 % 0.0 mm 0.0 W/m2 CLR
04:32 5.4 °C 3.9 °C 1028.0 hPa Calm     90 % 0.0 mm 0.0 W/m2 CLR
04:37 5.3 °C 3.8 °C 1028.0 hPa Calm     90 % 0.0 mm 0.0 W/m2 CLR
04:42 5.3 °C 3.8 °C 1028.0 hPa Calm     90 % 0.0 mm 0.0 W/m2 CLR
04:47 5.2 °C 3.7 °C 1028.0 hPa Calm     90 % 0.0 mm 0.0 W/m2 CLR
04:52 5.1 °C 3.6 °C 1028.0 hPa Calm     90 % 0.0 mm 0.0 W/m2 CLR
04:57 5.1 °C 3.6 °C 1028.0 hPa Calm     90 % 0.0 mm 0.0 W/m2 CLR
05:02 5.1 °C 3.6 °C 1028.0 hPa Calm     90 % 0.0 mm 0.0 W/m2 CLR
05:07 5.1 °C 3.6 °C 1028.0 hPa Calm     90 % 0.0 mm 0.0 W/m2 CLR
05:12 5.1 °C 3.6 °C 1028.0 hPa Calm     90 % 0.0 mm 0.0 W/m2 CLR
05:17 4.9 °C 3.4 °C 1028.0 hPa Calm     90 % 0.0 mm 0.0 W/m2 CLR
05:22 4.8 °C 3.3 °C 1028.0 hPa Calm     90 % 0.0 mm 0.0 W/m2 CLR
05:27 4.7 °C 3.2 °C 1028.0 hPa Calm     90 % 0.0 mm 0.0 W/m2 CLR
05:32 4.6 °C 3.1 °C 1028.0 hPa Calm     90 % 0.0 mm 0.0 W/m2 CLR
05:37 4.6 °C 3.3 °C 1027.7 hPa Calm     91 % 0.0 mm 0.0 W/m2 CLR
05:42 4.6 °C 3.3 °C 1027.7 hPa Calm     91 % 0.0 mm 0.0 W/m2 CLR
05:47 4.7 °C 3.3 °C 1028.0 hPa Calm     91 % 0.0 mm 0.0 W/m2 CLR
05:52 4.7 °C 3.4 °C 1028.0 hPa Calm     91 % 0.0 mm 0.0 W/m2 CLR
05:57 4.7 °C 3.4 °C 1028.0 hPa Calm     91 % 0.0 mm 0.0 W/m2 CLR
06:02 4.6 °C 3.3 °C 1028.0 hPa Calm     91 % 0.0 mm 0.0 W/m2 CLR
06:07 4.6 °C 3.2 °C 1028.0 hPa Calm     91 % 0.0 mm 0.0 W/m2 CLR
06:12 4.4 °C 3.1 °C 1028.0 hPa Calm     91 % 0.0 mm 0.0 W/m2 CLR
06:17 4.3 °C 3.0 °C 1028.0 hPa Calm     91 % 0.0 mm 0.0 W/m2 CLR
06:22 4.2 °C 2.9 °C 1028.0 hPa Calm     91 % 0.0 mm 0.0 W/m2 CLR
06:27 4.1 °C 2.7 °C 1028.0 hPa Calm     91 % 0.0 mm 0.0 W/m2 CLR
06:32 4.0 °C 2.7 °C 1028.0 hPa Calm     91 % 0.0 mm 0.0 W/m2 CLR
06:37 4.1 °C 2.9 °C 1028.0 hPa Calm     92 % 0.0 mm 0.0 W/m2 CLR
06:42 4.1 °C 2.9 °C 1028.0 hPa Calm     92 % 0.0 mm 0.0 W/m2 CLR
06:47 4.2 °C 3.1 °C 1028.0 hPa Calm     92 % 0.0 mm 0.0 W/m2 CLR
06:52 4.2 °C 3.1 °C 1028.0 hPa Calm     92 % 0.0 mm 0.0 W/m2 CLR
06:57 4.1 °C 2.9 °C 1028.0 hPa Calm     92 % 0.0 mm 0.0 W/m2 CLR
07:02 4.1 °C 2.9 °C 1028.0 hPa Calm     92 % 0.0 mm 0.0 W/m2 CLR
07:07 4.1 °C 2.9 °C 1028.0 hPa Calm     92 % 0.0 mm 0.0 W/m2 CLR
07:12 4.2 °C 3.0 °C 1028.0 hPa Calm     92 % 0.0 mm 0.0 W/m2 CLR
07:17 4.3 °C 3.1 °C 1028.0 hPa Calm     92 % 0.0 mm 0.0 W/m2 CLR
07:22 4.2 °C 3.1 °C 1028.0 hPa Calm     92 % 0.0 mm 0.0 W/m2 CLR
07:27 4.2 °C 3.1 °C 1028.3 hPa Calm     92 % 0.0 mm 0.0 W/m2 CLR
07:32 4.2 °C 3.0 °C 1028.3 hPa Calm     92 % 0.0 mm 0.0 W/m2 CLR
07:37 4.2 °C 3.0 °C 1028.3 hPa Calm     92 % 0.0 mm 0.0 W/m2 OVC
07:40 4.1 °C 2.9 °C 1028.3 hPa Calm     92 % 0.0 mm 0.0 W/m2 OVC
07:45 4.1 °C 2.9 °C 1028.3 hPa Calm     92 % 0.0 mm 0.0 W/m2 OVC
07:50 4.1 °C 2.9 °C 1028.3 hPa Calm     92 % 0.0 mm 5.0 W/m2 OVC
07:55 3.9 °C 2.8 °C 1028.3 hPa Calm     92 % 0.0 mm 9.0 W/m2 BKN
08:00 3.9 °C 2.7 °C 1028.3 hPa Calm     92 % 0.0 mm 11.0 W/m2 BKN
08:05 3.9 °C 2.7 °C 1028.3 hPa Calm     92 % 0.0 mm 14.0 W/m2 BKN
08:10 3.9 °C 2.7 °C 1028.3 hPa Calm     92 % 0.0 mm 16.0 W/m2 BKN
08:15 4.0 °C 2.8 °C 1028.7 hPa Calm     92 % 0.0 mm 19.0 W/m2 BKN
08:20 4.3 °C 3.1 °C 1028.7 hPa Calm     92 % 0.0 mm 30.0 W/m2 BKN
08:25 4.4 °C 3.3 °C 1028.7 hPa Calm     92 % 0.0 mm 44.0 W/m2 BKN
08:30 4.6 °C 3.4 °C 1028.7 hPa Calm     92 % 0.0 mm 49.0 W/m2 SCT
08:35 4.7 °C 3.6 °C 1028.7 hPa Calm     92 % 0.0 mm 63.0 W/m2 SCT
08:40 4.8 °C 3.7 °C 1028.7 hPa Calm     92 % 0.0 mm 35.0 W/m2 BKN
08:45 5.1 °C 3.9 °C 1028.7 hPa Calm     92 % 0.0 mm 28.0 W/m2 BKN
08:50 5.6 °C 4.3 °C 1028.7 hPa Calm     92 % 0.0 mm 30.0 W/m2 BKN
08:53 5.8 °C 4.6 °C 1028.7 hPa Calm     92 % 0.0 mm 116.0 W/m2 BKN
08:58 6.2 °C 4.9 °C 1028.7 hPa Calm     92 % 0.0 mm 146.0 W/m2 FEW
09:03 6.6 °C 5.2 °C 1028.7 hPa Calm     91 % 0.0 mm 163.0 W/m2 CLR
09:08 7.0 °C 5.4 °C 1028.7 hPa Calm     90 % 0.0 mm 181.0 W/m2 CLR
09:13 7.4 °C 5.8 °C 1028.7 hPa Calm     90 % 0.0 mm 202.0 W/m2 CLR
09:18 7.9 °C 6.4 °C 1028.7 hPa Calm     90 % 0.0 mm 218.0 W/m2 CLR
09:23 8.5 °C 6.6 °C 1028.7 hPa Calm     88 % 0.0 mm 236.0 W/m2 CLR
09:28 9.1 °C 6.9 °C 1028.7 hPa Calm     86 % 0.0 mm 251.0 W/m2 CLR
09:33 9.7 °C 7.3 °C 1028.7 hPa Calm     85 % 0.0 mm 271.0 W/m2 CLR
09:38 10.2 °C 7.3 °C 1028.7 hPa Calm     82 % 0.0 mm 285.0 W/m2 CLR
09:43 10.8 °C 7.7 °C 1028.7 hPa Calm     81 % 0.0 mm 299.0 W/m2 CLR
09:48 11.3 °C 7.8 °C 1028.7 hPa Calm     79 % 0.0 mm 316.0 W/m2 CLR
09:53 11.8 °C 7.9 °C 1028.7 hPa Calm     77 % 0.0 mm 332.0 W/m2 CLR
09:58 12.2 °C 7.9 °C 1028.7 hPa Calm     75 % 0.0 mm 350.0 W/m2 CLR
10:03 12.6 °C 8.1 °C 1028.7 hPa Calm     74 % 0.0 mm 366.0 W/m2 CLR
10:08 13.0 °C 8.1 °C 1028.7 hPa Calm     72 % 0.0 mm 381.0 W/m2 CLR
10:13 13.3 °C 8.1 °C 1028.7 hPa Calm     71 % 0.0 mm 396.0 W/m2 CLR
10:18 13.4 °C 8.0 °C 1028.7 hPa Calm     70 % 0.0 mm 413.0 W/m2 CLR
10:23 13.6 °C 8.2 °C 1028.7 hPa Calm     70 % 0.0 mm 429.0 W/m2 CLR
10:28 13.7 °C 8.1 °C 1028.7 hPa Calm     69 % 0.0 mm 443.0 W/m2 CLR
10:33 14.0 °C 8.4 °C 1028.7 hPa Calm     69 % 0.0 mm 457.0 W/m2 CLR
10:38 14.3 °C 8.1 °C 1028.7 hPa Calm     66 % 0.0 mm 471.0 W/m2 CLR
10:43 14.7 °C 8.4 °C 1028.7 hPa Calm     66 % 0.0 mm 489.0 W/m2 CLR
10:48 15.0 °C 8.4 °C 1028.7 hPa Calm     65 % 0.0 mm 501.0 W/m2 CLR
10:53 15.4 °C 8.7 °C 1028.7 hPa Calm     64 % 0.0 mm 515.0 W/m2 CLR
10:58 15.8 °C 8.8 °C 1028.7 hPa Calm     63 % 0.0 mm 527.0 W/m2 CLR
11:03 16.1 °C 8.3 °C 1028.7 hPa Calm     60 % 0.0 mm 545.0 W/m2 CLR
11:08 16.3 °C 8.5 °C 1028.3 hPa NW 7.4 km/h 7.4 km/h 60 % 0.0 mm 557.0 W/m2 CLR
11:13 16.4 °C 8.6 °C 1028.3 hPa Calm     60 % 0.0 mm 568.0 W/m2 CLR
11:19 16.7 °C 8.7 °C 1028.3 hPa NW 8.0 km/h 8.0 km/h 59 % 0.0 mm 582.0 W/m2 CLR
11:24 16.8 °C 8.5 °C 1028.3 hPa WNW 9.7 km/h 9.7 km/h 58 % 0.0 mm 596.0 W/m2 CLR
11:28 16.9 °C 8.3 °C 1028.3 hPa WNW 11.3 km/h 11.3 km/h 57 % 0.0 mm 606.0 W/m2 CLR
11:34 16.8 °C 8.3 °C 1028.3 hPa WNW 4.8 km/h 4.8 km/h 57 % 0.0 mm 617.0 W/m2 CLR
11:39 16.9 °C 8.6 °C 1028.3 hPa NW 7.4 km/h 7.4 km/h 58 % 0.0 mm 628.0 W/m2 CLR
11:44 17.1 °C 8.4 °C 1028.3 hPa NW 8.0 km/h 8.0 km/h 57 % 0.0 mm 640.0 W/m2 CLR
11:49 17.1 °C 8.5 °C 1028.3 hPa NNW 5.6 km/h 5.6 km/h 57 % 0.0 mm 650.0 W/m2 CLR
11:54 17.3 °C 8.7 °C 1028.3 hPa North 7.4 km/h 7.4 km/h 57 % 0.0 mm 661.0 W/m2 CLR
11:59 17.3 °C 8.4 °C 1028.3 hPa Calm     56 % 0.0 mm 673.0 W/m2 CLR
12:04 17.6 °C 7.8 °C 1028.0 hPa Calm     53 % 0.0 mm 680.0 W/m2 CLR
12:06 17.7 °C 8.5 °C 1028.0 hPa Calm     55 % 0.0 mm 689.0 W/m2 CLR
12:11 17.9 °C 8.2 °C 1028.0 hPa Calm     53 % 0.0 mm 696.0 W/m2 CLR
12:16 17.9 °C 8.5 °C 1028.0 hPa North 5.6 km/h 5.6 km/h 54 % 0.0 mm 705.0 W/m2 CLR
12:21 17.9 °C 8.2 °C 1028.0 hPa NNE 7.4 km/h 7.4 km/h 53 % 0.0 mm 712.0 W/m2 CLR
12:26 18.1 °C 8.3 °C 1028.0 hPa Calm     53 % 0.0 mm 722.0 W/m2 CLR
12:31 18.3 °C 8.6 °C 1028.0 hPa WNW 8.0 km/h 8.0 km/h 53 % 0.0 mm 731.0 W/m2 CLR
12:36 18.4 °C 8.6 °C 1028.0 hPa NW 7.4 km/h 7.4 km/h 53 % 0.0 mm 738.0 W/m2 CLR
12:41 18.4 °C 8.1 °C 1027.7 hPa NE 1.9 km/h 1.9 km/h 51 % 0.0 mm 744.0 W/m2 CLR
12:46 18.7 °C 8.4 °C 1028.0 hPa Calm     51 % 0.0 mm 752.0 W/m2 CLR
12:51 19.0 °C 8.6 °C 1027.7 hPa ENE 5.6 km/h 5.6 km/h 51 % 0.0 mm 761.0 W/m2 CLR
12:56 19.0 °C 8.3 °C 1027.7 hPa East 4.8 km/h 4.8 km/h 50 % 0.0 mm 766.0 W/m2 CLR
13:01 19.0 °C 8.3 °C 1027.7 hPa Calm     50 % 0.0 mm 772.0 W/m2 CLR
13:06 19.0 °C 8.3 °C 1027.3 hPa North 5.6 km/h 5.6 km/h 50 % 0.0 mm 775.0 W/m2 CLR
13:11 19.2 °C 9.1 °C 1027.3 hPa West 3.7 km/h 3.7 km/h 52 % 0.0 mm 780.0 W/m2 CLR
13:16 19.4 °C 8.7 °C 1027.3 hPa Calm     50 % 0.0 mm 786.0 W/m2 CLR
13:21 19.5 °C 8.8 °C 1027.3 hPa WSW 1.6 km/h   50 % 0.0 mm 789.0 W/m2 CLR
13:26 19.6 °C 8.2 °C 1027.3 hPa Calm     48 % 0.0 mm 802.0 W/m2 CLR
13:31 19.7 °C 8.7 °C 1027.3 hPa NE 1.9 km/h 1.9 km/h 49 % 0.0 mm 796.0 W/m2 CLR
13:36 19.8 °C 8.8 °C 1027.0 hPa ESE 5.6 km/h 5.6 km/h 49 % 0.0 mm 802.0 W/m2 CLR
13:41 19.9 °C 9.2 °C 1027.0 hPa Calm     50 % 0.0 mm 809.0 W/m2 CLR
13:46 19.9 °C 8.6 °C 1027.0 hPa East 8.0 km/h 8.0 km/h 48 % 0.0 mm 805.0 W/m2 CLR
13:51 19.9 °C 8.9 °C 1027.0 hPa ENE 5.6 km/h 5.6 km/h 49 % 0.0 mm 809.0 W/m2 CLR
13:56 20.3 °C 8.9 °C 1026.6 hPa NNE 7.4 km/h 7.4 km/h 48 % 0.0 mm 821.0 W/m2 CLR
14:01 20.3 °C 8.7 °C 1026.6 hPa NNE 7.4 km/h 7.4 km/h 47 % 0.0 mm 833.0 W/m2 CLR
14:06 20.3 °C 8.0 °C 1026.6 hPa NNW 16.7 km/h 16.7 km/h 45 % 0.0 mm 821.0 W/m2 CLR
14:11 20.4 °C 8.1 °C 1026.6 hPa NNW 18.5 km/h 18.5 km/h 45 % 0.0 mm 817.0 W/m2 CLR
14:16 20.3 °C 8.3 °C 1026.6 hPa NNW 13.0 km/h 13.0 km/h 46 % 0.0 mm 803.0 W/m2 CLR
14:21 20.3 °C 7.9 °C 1026.6 hPa NNW 9.3 km/h 9.3 km/h 45 % 0.0 mm 807.0 W/m2 CLR
14:26 20.4 °C 9.0 °C 1026.3 hPa NNW 7.4 km/h 7.4 km/h 48 % 0.0 mm 805.0 W/m2 CLR
14:31 20.4 °C 7.1 °C 1026.3 hPa Calm     42 % 0.0 mm 798.0 W/m2 CLR
14:36 20.7 °C 8.0 °C 1026.3 hPa ENE 14.8 km/h 14.8 km/h 44 % 0.0 mm 803.0 W/m2 CLR
14:41 20.7 °C 7.3 °C 1026.3 hPa Calm     42 % 0.0 mm 798.0 W/m2 CLR
14:46 20.7 °C 7.3 °C 1026.0 hPa Calm     42 % 0.0 mm 796.0 W/m2 CLR
14:51 20.8 °C 7.7 °C 1026.0 hPa Calm     43 % 0.0 mm 796.0 W/m2 CLR
14:56 20.9 °C 8.2 °C 1026.0 hPa North 8.0 km/h 8.0 km/h 44 % 0.0 mm 791.0 W/m2 CLR
15:01 20.9 °C 8.5 °C 1026.0 hPa NNW 9.7 km/h 9.7 km/h 45 % 0.0 mm 784.0 W/m2 CLR
15:06 20.9 °C 8.2 °C 1025.6 hPa NE 6.4 km/h 6.4 km/h 44 % 0.0 mm 780.0 W/m2 CLR
15:11 21.0 °C 7.9 °C 1025.6 hPa ENE 11.1 km/h 11.1 km/h 43 % 0.0 mm 775.0 W/m2 CLR
15:16 20.8 °C 7.4 °C 1025.6 hPa ENE 3.7 km/h   42 % 0.0 mm 772.0 W/m2 CLR
15:21 20.8 °C 7.7 °C 1025.6 hPa Calm     43 % 0.0 mm 765.0 W/m2 CLR
15:26 20.9 °C 8.2 °C 1025.6 hPa East 8.0 km/h 8.0 km/h 44 % 0.0 mm 758.0 W/m2 CLR
15:31 20.9 °C 7.6 °C 1025.3 hPa Calm     42 % 0.0 mm 752.0 W/m2 CLR
15:36 21.2 °C 7.4 °C 1025.3 hPa SW 3.2 km/h 3.2 km/h 41 % 0.0 mm 745.0 W/m2 CLR
15:41 21.3 °C 7.5 °C 1025.3 hPa South 5.6 km/h 5.6 km/h 41 % 0.0 mm 737.0 W/m2 CLR
15:46 21.6 °C 7.4 °C 1024.9 hPa SW 5.6 km/h   40 % 0.0 mm 728.0 W/m2 CLR
15:51 21.6 °C 7.7 °C 1024.9 hPa North 1.9 km/h 1.9 km/h 41 % 0.0 mm 717.0 W/m2 CLR
15:56 21.8 °C 8.7 °C 1024.9 hPa North 11.1 km/h 11.1 km/h 43 % 0.0 mm 710.0 W/m2 CLR
16:01 21.7 °C 8.6 °C 1024.9 hPa NW 11.1 km/h 11.1 km/h 43 % 0.0 mm 703.0 W/m2 CLR
16:06 21.4 °C 7.6 °C 1024.9 hPa Calm     41 % 0.0 mm 693.0 W/m2 CLR
16:11 21.5 °C 7.7 °C 1024.9 hPa North 13.0 km/h 13.0 km/h 41 % 0.0 mm 682.0 W/m2 CLR
16:16 21.4 °C 8.0 °C 1024.9 hPa ENE 7.4 km/h 7.4 km/h 42 % 0.0 mm 668.0 W/m2 CLR
16:21 21.6 °C 7.8 °C 1024.6 hPa NE 9.3 km/h 9.3 km/h 41 % 0.0 mm 659.0 W/m2 CLR
16:26 21.7 °C 7.5 °C 1024.6 hPa NE 5.6 km/h 5.6 km/h 40 % 0.0 mm 652.0 W/m2 CLR
16:31 21.8 °C 7.6 °C 1024.6 hPa Calm     40 % 0.0 mm 638.0 W/m2 CLR
16:36 21.9 °C 8.1 °C 1024.6 hPa ENE 5.6 km/h 5.6 km/h 41 % 0.0 mm 631.0 W/m2 CLR
16:41 22.0 °C 7.4 °C 1024.3 hPa Calm     39 % 0.0 mm 617.0 W/m2 CLR
16:46 22.1 °C 7.1 °C 1024.3 hPa Calm     38 % 0.0 mm 606.0 W/m2 CLR
16:51 22.3 °C 7.7 °C 1024.3 hPa North 3.7 km/h 3.7 km/h 39 % 0.0 mm 592.0 W/m2 CLR
16:56 22.4 °C 7.7 °C 1024.3 hPa Calm     39 % 0.0 mm 580.0 W/m2 CLR
17:01 22.4 °C 7.4 °C 1024.3 hPa ESE 11.1 km/h 11.1 km/h 38 % 0.0 mm 568.0 W/m2 CLR
17:06 22.2 °C 7.9 °C 1023.9 hPa ENE 8.0 km/h 8.0 km/h 40 % 0.0 mm 554.0 W/m2 CLR
17:11 22.1 °C 7.5 °C 1023.9 hPa NE 5.6 km/h 5.6 km/h 39 % 0.0 mm 541.0 W/m2 CLR
17:16 22.0 °C 7.4 °C 1023.9 hPa NE 5.6 km/h 5.6 km/h 39 % 0.0 mm 524.0 W/m2 CLR
17:21 22.0 °C 7.4 °C 1023.9 hPa NE 9.3 km/h 9.3 km/h 39 % 0.0 mm 513.0 W/m2 CLR
17:26 21.8 °C 7.3 °C 1023.9 hPa ENE 9.3 km/h 9.3 km/h 39 % 0.0 mm 497.0 W/m2 CLR
17:31 21.8 °C 7.3 °C 1023.9 hPa ENE 3.7 km/h   39 % 0.0 mm 485.0 W/m2 CLR
17:36 22.0 °C 7.4 °C 1023.9 hPa ENE 9.3 km/h 9.3 km/h 39 % 0.0 mm 469.0 W/m2 CLR
17:41 22.1 °C 7.5 °C 1023.9 hPa North 5.6 km/h   39 % 0.0 mm 457.0 W/m2 CLR
17:46 22.1 °C 7.5 °C 1023.9 hPa NE 9.3 km/h 9.3 km/h 39 % 0.0 mm 441.0 W/m2 CLR
17:51 22.1 °C 7.1 °C 1023.9 hPa NE 14.8 km/h 14.8 km/h 38 % 0.0 mm 425.0 W/m2 CLR
17:56 22.0 °C 7.8 °C 1023.9 hPa NE 5.6 km/h 5.6 km/h 40 % 0.0 mm 411.0 W/m2 CLR
18:01 22.0 °C 7.4 °C 1023.9 hPa ENE 13.0 km/h 13.0 km/h 39 % 0.0 mm 394.0 W/m2 CLR
18:06 21.9 °C 7.3 °C 1023.9 hPa NE 13.0 km/h 13.0 km/h 39 % 0.0 mm 378.0 W/m2 CLR
18:11 21.8 °C 7.2 °C 1023.9 hPa NE 11.1 km/h 11.1 km/h 39 % 0.0 mm 362.0 W/m2 CLR
18:16 21.8 °C 7.2 °C 1023.9 hPa NNE 11.1 km/h 11.1 km/h 39 % 0.0 mm 346.0 W/m2 CLR
18:21 21.8 °C 6.9 °C 1023.9 hPa NNE 5.6 km/h 5.6 km/h 38 % 0.0 mm 329.0 W/m2 CLR
18:26 21.9 °C 6.9 °C 1023.9 hPa NNE 6.4 km/h 6.4 km/h 38 % 0.0 mm 311.0 W/m2 SCT
18:27 21.9 °C 7.3 °C 1023.9 hPa NE 6.4 km/h 6.4 km/h 39 % 0.0 mm 309.0 W/m2 BKN
18:32 22.0 °C 7.4 °C 1023.9 hPa NE 9.7 km/h 9.7 km/h 39 % 0.0 mm 294.0 W/m2 OVC
18:37 21.8 °C 6.9 °C 1023.9 hPa NNE 11.1 km/h 11.1 km/h 38 % 0.0 mm 278.0 W/m2 OVC
18:42 21.7 °C 7.2 °C 1023.9 hPa ENE 5.6 km/h 5.6 km/h 39 % 0.0 mm 262.0 W/m2 OVC
18:47 21.7 °C 7.1 °C 1023.9 hPa NE 5.6 km/h 5.6 km/h 39 % 0.0 mm 241.0 W/m2 OVC
18:52 21.6 °C 7.1 °C 1023.9 hPa ENE 13.0 km/h 13.0 km/h 39 % 0.0 mm 225.0 W/m2 OVC
18:57 21.6 °C 7.0 °C 1023.9 hPa Calm     39 % 0.0 mm 206.0 W/m2 OVC
19:02 21.6 °C 7.1 °C 1023.9 hPa NE 8.0 km/h 8.0 km/h 39 % 0.0 mm 186.0 W/m2 OVC
19:07 21.5 °C 7.7 °C 1023.9 hPa NNE 5.6 km/h 5.6 km/h 41 % 0.0 mm 165.0 W/m2 OVC
19:12 21.4 °C 6.9 °C 1023.9 hPa NNE 9.3 km/h 9.3 km/h 39 % 0.0 mm 148.0 W/m2 OVC
19:17 21.3 °C 6.8 °C 1023.9 hPa North 9.3 km/h 9.3 km/h 39 % 0.0 mm 130.0 W/m2 OVC
19:22 21.3 °C 6.8 °C 1023.9 hPa NE 7.4 km/h 7.6 km/h 39 % 0.0 mm 113.0 W/m2 OVC
19:27 21.2 °C 7.0 °C 1023.9 hPa NE 7.4 km/h 7.4 km/h 40 % 0.0 mm 97.0 W/m2 OVC
19:32 21.1 °C 6.9 °C 1023.9 hPa North 11.1 km/h 11.1 km/h 40 % 0.0 mm 79.0 W/m2 OVC
19:37 20.9 °C 7.2 °C 1023.9 hPa NNE 6.4 km/h 6.4 km/h 41 % 0.0 mm 62.0 W/m2 OVC
19:42 20.8 °C 7.1 °C 1023.9 hPa NNE 5.6 km/h 5.6 km/h 41 % 0.0 mm 47.0 W/m2 OVC
19:43 20.8 °C 7.1 °C 1023.9 hPa NNE 5.6 km/h 5.6 km/h 41 % 0.0 mm 47.0 W/m2 OVC
19:48 20.7 °C 7.0 °C 1023.9 hPa North 5.6 km/h 5.6 km/h 41 % 0.0 mm 35.0 W/m2 OVC
19:53 20.6 °C 6.8 °C 1023.9 hPa NNE 5.6 km/h   41 % 0.0 mm 21.0 W/m2 OVC
19:58 20.3 °C 6.9 °C 1024.3 hPa NE 5.6 km/h 5.6 km/h 42 % 0.0 mm 14.0 W/m2 OVC
20:03 20.0 °C 7.1 °C 1024.3 hPa Calm     43 % 0.0 mm 11.0 W/m2 OVC
20:08 19.8 °C 7.5 °C 1024.3 hPa ENE 3.7 km/h 3.7 km/h 45 % 0.0 mm 11.0 W/m2 OVC
20:13 19.6 °C 7.6 °C 1024.3 hPa Calm     46 % 0.0 mm 7.0 W/m2 OVC
20:18 19.4 °C 8.2 °C 1024.3 hPa Calm     48 % 0.0 mm 5.0 W/m2 OVC
20:21 19.3 °C 8.1 °C 1024.3 hPa Calm     48 % 0.0 mm 0.0 W/m2 OVC
20:26 19.1 °C 8.2 °C 1024.3 hPa Calm     49 % 0.0 mm 0.0 W/m2 OVC
20:31 18.9 °C 8.2 °C 1024.3 hPa Calm     50 % 0.0 mm 0.0 W/m2 OVC
20:36 18.7 °C 8.1 °C 1024.6 hPa Calm     50 % 0.0 mm 0.0 W/m2 CLR
20:41 18.4 °C 8.1 °C 1024.6 hPa Calm     51 % 0.0 mm 0.0 W/m2 CLR
20:46 18.3 °C 8.2 °C 1024.6 hPa Calm     52 % 0.0 mm 0.0 W/m2 CLR
20:51 18.1 °C 8.1 °C 1024.6 hPa Calm     52 % 0.0 mm 0.0 W/m2 CLR
20:56 17.9 °C 8.4 °C 1024.6 hPa Calm     54 % 0.0 mm 0.0 W/m2 CLR
21:01 17.5 °C 8.6 °C 1024.6 hPa Calm     56 % 0.0 mm 0.0 W/m2 CLR
21:06 16.9 °C 8.6 °C 1024.9 hPa Calm     58 % 0.0 mm 0.0 W/m2 CLR
21:11 16.5 °C 8.4 °C 1024.9 hPa Calm     59 % 0.0 mm 0.0 W/m2 CLR
21:16 16.1 °C 8.6 °C 1024.9 hPa Calm     61 % 0.0 mm 0.0 W/m2 CLR
21:21 15.5 °C 8.2 °C 1024.9 hPa Calm     62 % 0.0 mm 0.0 W/m2 CLR
21:26 15.1 °C 8.1 °C 1024.9 hPa Calm     63 % 0.0 mm 0.0 W/m2 CLR
21:31 14.8 °C 8.1 °C 1025.3 hPa Calm     64 % 0.0 mm 0.0 W/m2 CLR
21:36 14.6 °C 7.9 °C 1025.3 hPa Calm     64 % 0.0 mm 0.0 W/m2 CLR
21:41 14.4 °C 8.1 °C 1025.3 hPa Calm     66 % 0.0 mm 0.0 W/m2 CLR
21:46 14.2 °C 8.1 °C 1025.3 hPa Calm     67 % 0.0 mm 0.0 W/m2 CLR
21:51 13.8 °C 8.0 °C 1025.6 hPa Calm     68 % 0.0 mm 0.0 W/m2 CLR
21:56 13.6 °C 7.8 °C 1025.6 hPa Calm     68 % 0.0 mm 0.0 W/m2 CLR
22:01 13.4 °C 7.8 °C 1025.6 hPa Calm     69 % 0.0 mm 0.0 W/m2 CLR
22:06 13.3 °C 7.9 °C 1025.6 hPa Calm     70 % 0.0 mm 0.0 W/m2 CLR
22:11 13.0 °C 7.9 °C 1025.6 hPa Calm     71 % 0.0 mm 0.0 W/m2 CLR
22:16 12.8 °C 7.8 °C 1025.6 hPa Calm     72 % 0.0 mm 0.0 W/m2 CLR
22:21 12.6 °C 7.7 °C 1025.6 hPa Calm     72 % 0.0 mm 0.0 W/m2 CLR
22:26 12.3 °C 7.6 °C 1025.6 hPa Calm     73 % 0.0 mm 0.0 W/m2 CLR
22:31 12.1 °C 7.6 °C 1025.6 hPa Calm     74 % 0.0 mm 0.0 W/m2 CLR
22:36 11.9 °C 7.7 °C 1025.6 hPa Calm     75 % 0.0 mm 0.0 W/m2 CLR
22:41 11.9 °C 7.7 °C 1025.6 hPa Calm     75 % 0.0 mm 0.0 W/m2 CLR
22:46 11.8 °C 7.6 °C 1026.0 hPa Calm     75 % 0.0 mm 0.0 W/m2 CLR
22:51 11.7 °C 7.4 °C 1026.0 hPa Calm     75 % 0.0 mm 0.0 W/m2 CLR
22:56 11.6 °C 7.5 °C 1025.6 hPa Calm     76 % 0.0 mm 0.0 W/m2 CLR
23:01 11.4 °C 7.3 °C 1026.0 hPa Calm     76 % 0.0 mm 0.0 W/m2 CLR
23:06 11.3 °C 7.2 °C 1026.0 hPa Calm     76 % 0.0 mm 0.0 W/m2 CLR
23:11 11.2 °C 7.3 °C 1026.0 hPa Calm     77 % 0.0 mm 0.0 W/m2 CLR
23:16 11.2 °C 7.3 °C 1026.0 hPa Calm     77 % 0.0 mm 0.0 W/m2 CLR
23:21 11.1 °C 7.2 °C 1026.0 hPa Calm     77 % 0.0 mm 0.0 W/m2 CLR
23:26 10.9 °C 7.1 °C 1026.0 hPa Calm     77 % 0.0 mm 0.0 W/m2 CLR
23:31 10.8 °C 7.2 °C 1026.0 hPa Calm     78 % 0.0 mm 0.0 W/m2 CLR
23:36 10.8 °C 7.2 °C 1026.0 hPa Calm     78 % 0.0 mm 0.0 W/m2 CLR
23:41 10.9 °C 7.2 °C 1026.0 hPa Calm     78 % 0.0 mm 0.0 W/m2 CLR
23:46 10.8 °C 7.2 °C 1026.0 hPa Calm     78 % 0.0 mm 0.0 W/m2 CLR
23:51 10.6 °C 6.9 °C 1026.0 hPa Calm     78 % 0.0 mm 0.0 W/m2 CLR
23:56 10.4 °C 6.8 °C 1026.0 hPa Calm     78 % 0.0 mm 0.0 W/m2 CLR
Lo Temps de Massalio
Compliments of Weather Underground - 1.25 mb